LFBA - Agen,(47)Lot-et-Garonne
Mise à jour: Fri, 23-Feb-2018 10:30 CET
Partiellement nuageux
Partiellement nuageux
 Wind from SW
Vent: SW 2 km/h
Température: -2°C
Point de Rosée: -4°C
Humidité: 86%
Barometre: 1009 hPa
Nuage: Partiellement nuageux
Visibilité: 8 km
2018/02/23 21:30 LFBA 232130Z AUTO 22001KT 8000 NSC M02/M04 Q1009
LFKJ - Ajaccio,(2A)Corse-du-Sud
Mise à jour: Fri, 23-Feb-2018 10:30 CET
Couvert
Couvert
 Wind from varies
Vent: varies 4 km/h
Température: 10°C
Point de Rosée: 6°C
Humidité: 76%
Barometre: 1001 hPa
Nuage: Couvert
Visibilité: 10 km
2018/02/23 21:30 LFKJ 232130Z AUTO VRB02KT 9999 FEW034 BKN043 OVC050 10/06 Q1001 TEMPO RA
LFLP - Annecy,(74)Haute-Savoie
Mise à jour: Fri, 23-Feb-2018 10:30 CET
Couvert
Couvert
 Wind from N
Vent: N 19 km/h
Température: 0°C
Température au Vent: -5°C
Point de Rosée: -4°C
Humidité: 75%
Barometre: 1009 hPa
Nuage: Couvert
Visibilité: 6 km
2018/02/23 21:30 LFLP 232130Z AUTO 35010KT 320V020 6000 OVC022 M00/M04 Q1009
 
LFLW - Aurillac,(15)Cantal
Mise à jour: Fri, 23-Feb-2018 10:30 CET
Partiellement nuageux
Partiellement nuageux
 Wind from ESE
Vent: ESE 9 km/h
Température: -2°C
Température au Vent: -6°C
Point de Rosée: -6°C
Humidité: 74%
Barometre: 1006 hPa
Nuage: Partiellement nuageux
Visibilité: 9 km
2018/02/23 21:30 LFLW 232130Z AUTO 11005KT 9000 NSC M02/M06 Q1006 TEMPO 4000 BR
LFOA - Avord,(18)Cher
Mise à jour: Fri, 23-Feb-2018 10:30 CET
Couvert
Couvert
 Wind from ENE
Vent: ENE 9 km/h
Température: 1°C
Température au Vent: -2°C
Point de Rosée: -4°C
Humidité: 70%
Barometre: 1012 hPa
Nuage: Couvert
Visibilité: 10 km
2018/02/23 21:30 LFOA 232130Z AUTO 06005KT 9999 OVC038 01/M04 Q1012
LFSB - Bale(CH)-Mulhouse,(68)Haut-Rhin
Mise à jour: Fri, 23-Feb-2018 10:30 CET
Nuageux
Nuageux
 Wind from ESE
Vent: ESE 17 km/h
Température: 0°C
Température au Vent: -4°C
Point de Rosée: -6°C
Humidité: 64%
Barometre: 1013 hPa
Nuage: Nuageux
Visibilité: 10 km
2018/02/23 21:30 LFSB 232130Z 11009KT 9999 BKN026 M00/M06 Q1013 NOSIG
 
LFKB - Bastia,(2B)Haute-Corse
Mise à jour: Fri, 23-Feb-2018 10:30 CET
Pluie, Orageux
Pluie, Orageux
 Wind from NNW
Vent: NNW 19 km/h
Température: 7°C
Température au Vent: 4°C
Point de Rosée: 6°C
Humidité: 93%
Barometre: 1002 hPa
Nuage: Orageux
Visibilité: 6 km
2018/02/23 21:30 LFKB 232130Z AUTO 33010KT 6000 RA BKN020/// BKN028/// OVC034/// ///TCU 07/06 Q1002 TEMPO BKN013 OVC025
LFOB - Beauvais,(60)Oise
Mise à jour: Fri, 23-Feb-2018 10:30 CET
Claire
Claire
 Wind from NE
Vent: NE 20 km/h
Température: -1°C
Température au Vent: -7°C
Point de Rosée: -6°C
Humidité: 69%
Barometre: 1016 hPa
Visibilité: Supérieure à  10 km
2018/02/23 21:30 LFOB 232130Z AUTO 05011KT CAVOK M01/M06 Q1016 NOSIG
LFBE - Bergerac,(24)Dordogne
Mise à jour: Fri, 23-Feb-2018 10:30 CET
Partiellement nuageux
Partiellement nuageux
 Wind from W
Vent: W 6 km/h
Température: -1°C
Point de Rosée: -4°C
Humidité: 80%
Barometre: 1010 hPa
Nuage: Partiellement nuageux
Visibilité: 9 km
2018/02/23 21:30 LFBE 232130Z AUTO 27003KT 9000 NSC M01/M04 Q1010
 
LFMU - Beziers, Vias,(34)Hérault
Mise à jour: Fri, 23-Feb-2018 10:30 CET
Claire
Claire
 Wind from W
Vent: W 11 km/h
Température: 0°C
Température au Vent: -4°C
Point de Rosée: -4°C
Humidité: 75%
Barometre: 1008 hPa
Visibilité: Supérieure à  10 km
2018/02/23 21:30 LFMU 232130Z AUTO 28006KT CAVOK 00/M04 Q1008
LFBZ - Biarritz,(64)Pyrénées-Atlantiques
Mise à jour: Fri, 23-Feb-2018 10:30 CET
Couvert
Couvert
 Wind from varies
Vent: varies 2 km/h
Température: 4°C
Point de Rosée: -3°C
Humidité: 61%
Barometre: 1009 hPa
Nuage: Couvert
Visibilité: 10 km
2018/02/23 21:30 LFBZ 232130Z AUTO VRB01KT 9999 OVC038 04/M03 Q1009 NOSIG
LFBD - Bordeaux , Merignac,(33)Gironde
Mise à jour: Fri, 23-Feb-2018 10:30 CET
Partiellement nuageux
Partiellement nuageux
 Wind from N
Vent: N 9 km/h
Température: 0°C
Température au Vent: -3°C
Point de Rosée: -3°C
Humidité: 80%
Barometre: 1010 hPa
Nuage: Partiellement nuageux
Visibilité: 9 km
2018/02/23 21:30 LFBD 232130Z AUTO 01005KT 340V050 9000 NSC 00/M03 Q1010 NOSIG
 
LFAQ - Bray,(80)Somme
Mise à jour: Fri, 23-Feb-2018 10:30 CET
Claire
Claire
 Wind from ENE
Vent: ENE 19 km/h
Température: -2°C
Température au Vent: -8°C
Point de Rosée: -5°C
Humidité: 80%
Barometre: 1017 hPa
Visibilité: Supérieure à  10 km
2018/02/23 21:30 LFAQ 232130Z AUTO 06010KT CAVOK M02/M05 Q1017
LFRB - Brest,(29)Finistère
Mise à jour: Fri, 23-Feb-2018 10:30 CET
Claire
Claire
 Wind from E
Vent: E 9 km/h
Température: -2°C
Température au Vent: -6°C
Point de Rosée: -5°C
Humidité: 80%
Barometre: 1013 hPa
Visibilité: Supérieure à  10 km
2018/02/23 21:30 LFRB 232130Z AUTO 09005KT CAVOK M02/M05 Q1013 NOSIG
LFBU - Brie,Champniers,(16)Charente
Mise à jour: Fri, 23-Feb-2018 10:30 CET
Claire
Claire
 Wind from NE
Vent: NE 13 km/h
Température: 0°C
Température au Vent: -4°C
Point de Rosée: -5°C
Humidité: 69%
Barometre: 1010 hPa
Visibilité: Supérieure à  10 km
2018/02/23 21:30 LFBU 232130Z AUTO 04007KT CAVOK M00/M05 Q1010
 
LFSL - Brive (19), Souillac(46),Corrèze Lot
Mise à jour: Fri, 23-Feb-2018 10:30 CET
Partiellement nuageux
Partiellement nuageux
 Wind from NW
Vent: NW 2 km/h
Température: -1°C
Point de Rosée: -3°C
Humidité: 86%
Barometre: 1008 hPa
Nuage: Partiellement nuageux
Visibilité: 9 km
2018/02/23 21:30 LFSL 232130Z AUTO 31001KT 9000 NSC M01/M03 Q1008
LFRK - Caen,(14)Calvados
Mise à jour: Fri, 23-Feb-2018 10:30 CET
Claire
Claire
 Wind from E
Vent: E 9 km/h
Température: 0°C
Température au Vent: -3°C
Point de Rosée: -4°C
Humidité: 75%
Barometre: 1016 hPa
Visibilité: Supérieure à  10 km
2018/02/23 21:30 LFRK 232130Z AUTO 08005KT CAVOK 00/M04 Q1016
LFKC - Calvi,(2B)Haute-Corse
Mise à jour: Fri, 23-Feb-2018 10:30 CET
Légère pluie, Couvert
Légère pluie, Couvert
 Wind from N
Vent: N 7 km/h
Température: 8°C
Température au Vent: 7°C
Point de Rosée: 6°C
Humidité: 87%
Barometre: 1002 hPa
Nuage: Couvert
Visibilité: 10 km
2018/02/23 21:30 LFKC 232130Z AUTO 36004KT 9999 -RA BKN028 OVC036 08/06 Q1002
 
LFMD - Cannes,(06)Alpes-Maritimes
Mise à jour: Fri, 23-Feb-2018 10:30 CET
Couvert
Couvert
 Wind from varies
Vent: varies 4 km/h
Température: 7°C
Point de Rosée: 2°C
Humidité: 71%
Barometre: 1004 hPa
Nuage: Couvert
Visibilité: 9 km
2018/02/23 21:30 LFMD 232130Z AUTO VRB02KT 9000 SCT090 OVC100 07/02 Q1004
LFMK - Carcassonne,(11)Aude
Mise à jour: Fri, 23-Feb-2018 10:30 CET
Claire
Claire
 Wind from W
Vent: W 9 km/h
Température: 2°C
Température au Vent: -1°C
Point de Rosée: -3°C
Humidité: 70%
Barometre: 1009 hPa
Visibilité: Supérieure à  10 km
2018/02/23 21:30 LFMK 232130Z AUTO 26005KT 230V290 CAVOK 02/M03 Q1009
LFCK - Castre-Mazamet,(81)Tarn
Mise à jour: Fri, 23-Feb-2018 10:30 CET
Partiellement nuageux
Partiellement nuageux
 Wind from ESE
Vent: ESE 7 km/h
Température: -2°C
Température au Vent: -6°C
Point de Rosée: -5°C
Humidité: 80%
Barometre: 1009 hPa
Nuage: Partiellement nuageux
Visibilité: 7 km
2018/02/23 21:30 LFCK 232130Z AUTO 12004KT 7000 NSC M02/M05 Q1009 NOSIG
 
LFMV - Avignon/Caumont,(84) Vaucluse
Mise à jour: Fri, 23-Feb-2018 10:30 CET
Claire
Claire
 Wind from N
Vent: N 26 km/h
Température: 3°C
Température au Vent: -2°C
Point de Rosée: -4°C
Humidité: 60%
Barometre: 1006 hPa
Visibilité: Supérieure à  10 km
2018/02/23 21:30 LFMV 232130Z AUTO 36014KT CAVOK 03/M04 Q1006
LFBC - Cazaux, (33)Gironde
Mise à jour: Fri, 23-Feb-2018 10:30 CET
Claire
Claire
 Wind from N
Vent: N 7 km/h
Température: -1°C
Température au Vent: -4°C
Point de Rosée: -4°C
Humidité: 80%
Barometre: 1010 hPa
Visibilité: Supérieure à  10 km
2018/02/23 21:30 LFBC 232130Z AUTO 36004KT CAVOK M01/M04 Q1010
LFOK - Chalon,Vatry,(51)Marne
Mise à jour: Fri, 23-Feb-2018 10:30 CET
Nuageux
Nuageux
 Wind from NE
Vent: NE 15 km/h
Température: -2°C
Température au Vent: -7°C
Point de Rosée: -7°C
Humidité: 69%
Barometre: 1014 hPa
Nuage: Nuageux
Visibilité: 10 km
2018/02/23 21:30 LFOK 232130Z AUTO 04008KT 9999 BKN039 M02/M07 Q1014 NOSIG
 
LFLB - Chambery,Aix Bai,(73)Savoie
Mise à jour: Fri, 23-Feb-2018 10:30 CET
Nuageux
Nuageux
 Wind from N
Vent: N 26 km/h
Température: 1°C
Température au Vent: -4°C
Point de Rosée: -4°C
Humidité: 70%
Barometre: 1010 hPa
Nuage: Nuageux
Visibilité: 6 km
2018/02/23 21:30 LFLB 232130Z AUTO 36014KT 6000 BKN033 BKN180 01/M04 Q1010
LFOC - Chateaudun,(28)Eure-et-Loir
Mise à jour: Fri, 23-Feb-2018 10:30 CET
Claire
Claire
 Wind from NE
Vent: NE 13 km/h
Température: 0°C
Température au Vent: -4°C
Point de Rosée: -5°C
Humidité: 69%
Barometre: 1013 hPa
Visibilité: Supérieure à  10 km
2018/02/23 21:30 LFOC 232130Z AUTO 04007KT CAVOK M00/M05 Q1013
LFLX - Chateauroux,(36)Indre
Mise à jour: Fri, 23-Feb-2018 10:30 CET
Couvert
Couvert
 Wind from NE
Vent: NE 9 km/h
Température: 0°C
Température au Vent: -3°C
Point de Rosée: -3°C
Humidité: 80%
Barometre: 1012 hPa
Nuage: Couvert
Visibilité: 10 km
2018/02/23 21:30 LFLX 232130Z AUTO 05005KT 9999 OVC041 00/M03 Q1012 NOSIG
 
LFRC - Cherbourg , Maupertus,(50)Manche
Mise à jour: Fri, 23-Feb-2018 10:30 CET
Claire
Claire
 Wind from ESE
Vent: ESE 20 km/h
Température: 1°C
Température au Vent: -4°C
Point de Rosée: -4°C
Humidité: 70%
Barometre: 1015 hPa
Visibilité: Supérieure à  10 km
2018/02/23 21:30 LFRC 232130Z AUTO 11011KT CAVOK 01/M04 Q1015
LFLC - Clermont-Ferrand,(63)Puy-de-Dôme
Mise à jour: Fri, 23-Feb-2018 10:30 CET
Couvert
Couvert
 Wind from varies
Vent: varies 4 km/h
Température: 0°C
Point de Rosée: -4°C
Humidité: 75%
Barometre: 1010 hPa
Nuage: Couvert
Visibilité: 10 km
2018/02/23 21:30 LFLC 232130Z AUTO VRB02KT 9999 OVC028 M00/M04 Q1010 TEMPO 3000 BR OVC010
LFBG - Cognac,(16)Charente
Mise à jour: Fri, 23-Feb-2018 10:30 CET
Quelques nuages
Quelques nuages
 Wind from NNE
Vent: NNE 13 km/h
Température: 1°C
Température au Vent: -3°C
Point de Rosée: -4°C
Humidité: 70%
Barometre: 1011 hPa
Nuage: Quelques nuages
Visibilité: 10 km
2018/02/23 21:30 LFBG 232130Z AUTO 03007KT 9999 FEW039 01/M04 Q1011
 
LFGA - Colmar,(68)Haut-Rhin
Mise à jour: Fri, 23-Feb-2018 10:30 CET
Couvert
Couvert
 Wind from N
Vent: N 9 km/h
Température: 1°C
Température au Vent: -2°C
Point de Rosée: -4°C
Humidité: 70%
Barometre: 1014 hPa
Nuage: Couvert
Visibilité: 10 km
2018/02/23 21:30 LFGA 232130Z AUTO 36005KT 9999 OVC036 01/M04 Q1014
LFPT - Cormeilles Vexin,(95)Val-d Oise
Mise à jour: Fri, 23-Feb-2018 10:30 CET
Claire
Claire
 Wind from ENE
Vent: ENE 17 km/h
Température: -1°C
Température au Vent: -6°C
Point de Rosée: -6°C
Humidité: 69%
Barometre: 1015 hPa
Visibilité: Supérieure à  10 km
2018/02/23 21:30 LFPT 232130Z AUTO 06009KT CAVOK M01/M06 Q1015
LFPC - Creil Fafb,(60)Oise
Mise à jour: Thu, 01-Sep-2016 05:00 CEST
Pas Actualisé
Claire
Claire
 Wind from WNW
Vent: WNW 7 km/h
Température: 24°C
Point de Rosée: 13°C
Humidité: 50%
Barometre: 1023 hPa
Visibilité: Supérieure à  10 km
2016/09/01 15:00 LFPC 011500Z AUTO 30004KT 240V350 CAVOK 24/13 Q1023
 
LFBY - Dax,(40)Landes
Mise à jour: Fri, 23-Feb-2018 10:30 CET
Couvert
Couvert
 Wind from varies
Vent: varies 4 km/h
Température: 4°C
Point de Rosée: -3°C
Humidité: 61%
Barometre: 1009 hPa
Nuage: Couvert
Visibilité: 8 km
2018/02/23 21:30 LFBY 232130Z AUTO VRB02KT 8000 // OVC044 04/M03 Q1009
LFRG - Deauville/Saint-Gatien,(14)Calvados
Mise à jour: Fri, 23-Feb-2018 10:30 CET
Claire
Claire
 Wind from E
Vent: E 13 km/h
Température: -1°C
Température au Vent: -6°C
Point de Rosée: -6°C
Humidité: 69%
Barometre: 1015 hPa
Visibilité: Supérieure à  10 km
2018/02/23 21:30 LFRG 232130Z AUTO 10007KT 060V140 CAVOK M01/M06 Q1015
LFSD - Dijon,(31)Côte-d Or
Mise à jour: Fri, 23-Feb-2018 10:30 CET
Couvert
Couvert
 Wind from NE
Vent: NE 19 km/h
Température: 0°C
Température au Vent: -5°C
Point de Rosée: -5°C
Humidité: 69%
Barometre: 1012 hPa
Nuage: Couvert
Visibilité: 10 km
2018/02/23 21:30 LFSD 232130Z AUTO 05010KT 9999 OVC029 00/M05 Q1012
 
LFRD - Dinard,(35)Ille-et-Vilaine
Mise à jour: Fri, 23-Feb-2018 10:30 CET
Claire
Claire
 Wind from E
Vent: E 17 km/h
Température: 1°C
Température au Vent: -3°C
Point de Rosée: -4°C
Humidité: 70%
Barometre: 1014 hPa
Visibilité: Supérieure à  10 km
2018/02/23 21:30 LFRD 232130Z AUTO 08009KT CAVOK 01/M04 Q1014 NOSIG
LFGJ - Dole-Tavaux,(39) Jura
Mise à jour: Fri, 23-Feb-2018 10:30 CET
Partiellement nuageux
Partiellement nuageux
 Wind from NE
Vent: NE 26 km/h
Température: 0°C
Température au Vent: -6°C
Point de Rosée: -5°C
Humidité: 69%
Barometre: 1011 hPa
Nuage: Partiellement nuageux
Visibilité: 7 km
2018/02/23 21:30 LFGJ 232130Z AUTO 04014KT 7000 NSC M00/M05 Q1011
FMCZ - Dzaoudzi-Pamandzi,(976)Mayotte
Mise à jour: Fri, 23-Feb-2018 10:30 CET
Partiellement nuageux
Partiellement nuageux
 Wind from varies
Vent: varies 2 km/h
Température: 27°C
Humidex: 31°C
Point de Rosée: 25°C
Humidité: 89%
Barometre: 1009 hPa
Nuage: Partiellement nuageux
Visibilité: 10 km
2018/02/23 21:30 FMCZ 232130Z AUTO VRB01KT 9999 FEW044/// SCT052/// 27/25 Q1009 NOSIG
 
LFOE - Evreux,(27)Eure
Mise à jour: Fri, 23-Feb-2018 10:30 CET
Claire
Claire
 Wind from NE
Vent: NE 17 km/h
Température: -1°C
Température au Vent: -6°C
Point de Rosée: -6°C
Humidité: 69%
Barometre: 1015 hPa
Visibilité: Supérieure à  10 km
2018/02/23 21:30 LFOE 232130Z AUTO 05009KT CAVOK M01/M06 Q1015
LFSG - EPINAL Mirecourt,(88)Vosges
Mise à jour: Fri, 23-Feb-2018 10:30 CET
Couvert
Couvert
 Wind from NE
Vent: NE 20 km/h
Température: 0°C
Température au Vent: -6°C
Point de Rosée: -6°C
Humidité: 64%
Barometre: 1013 hPa
Nuage: Couvert
Visibilité: 10 km
2018/02/23 21:30 LFSG 232130Z AUTO 05011KT 9999 OVC032 M00/M06 Q1013
LFKF - Figari,(2A)Corse-du-Sud
Mise à jour: Fri, 23-Feb-2018 10:30 CET
Couvert
Couvert
 Wind from NE
Vent: NE 4 km/h
Température: 6°C
Point de Rosée: 5°C
Humidité: 93%
Barometre: 1001 hPa
Nuage: Couvert
Visibilité: 10 km
2018/02/23 21:30 LFKF 232130Z AUTO 04002KT 9999 BKN038 BKN062 OVC120 06/05 Q1001 BECMG 24010KT
 
LFLS - Grenoble , St. Geoirs,(38)Isère
Mise à jour: Fri, 23-Feb-2018 10:30 CET
Nuageux
Nuageux
 Wind from NNE
Vent: NNE 15 km/h
Température: 0°C
Température au Vent: -4°C
Point de Rosée: -4°C
Humidité: 75%
Barometre: 1009 hPa
Nuage: Nuageux
Visibilité: 7 km
2018/02/23 21:30 LFLS 232130Z AUTO 03008KT 7000 BKN034 00/M04 Q1009
LFTH - Hyeres,(83)Var
Mise à jour: Fri, 23-Feb-2018 10:30 CET
Claire
Claire
 Wind from W
Vent: W 11 km/h
Température: 9°C
Température au Vent: 7°C
Point de Rosée: 2°C
Humidité: 62%
Barometre: 1005 hPa
Visibilité: Supérieure à  10 km
2018/02/23 21:30 LFTH 232130Z AUTO 28006KT CAVOK 09/02 Q1005 NOSIG
LFMI - Istres,(13)Bouches-du-Rhône
Mise à jour: Fri, 23-Feb-2018 10:30 CET
Claire
Claire
 Wind from NNW
Vent: NNW 20 km/h
Température: 4°C
Température au Vent: -1°C
Point de Rosée: -4°C
Humidité: 56%
Barometre: 1006 hPa
Visibilité: Supérieure à  10 km
2018/02/23 21:30 LFMI 232130Z AUTO 33011KT CAVOK 04/M04 Q1006 NOSIG
 
LFOH - La Heve,(76)Seine-Maritime
Mise à jour: Fri, 23-Feb-2018 10:30 CET
Claire
Claire
 Wind from E
Vent: E 11 km/h
Température: -1°C
Température au Vent: -5°C
Point de Rosée: -5°C
Humidité: 75%
Barometre: 1016 hPa
Visibilité: Supérieure à  10 km
2018/02/23 21:30 LFOH 232130Z AUTO 08006KT CAVOK M01/M05 Q1016
LFRI - La Roche-Sur-Yon,(85)Vendée
Mise à jour: Fri, 23-Feb-2018 10:30 CET
Couvert
Couvert
 Wind from ENE
Vent: ENE 22 km/h
Température: 2°C
Température au Vent: -3°C
Point de Rosée: -4°C
Humidité: 65%
Barometre: 1012 hPa
Nuage: Couvert
Visibilité: 10 km
2018/02/23 21:30 LFRI 232130Z AUTO 06012KT 9999 OVC033 02/M04 Q1012 NOSIG
LFBH - La Rochelle,(17)Charente-Maritime
Mise à jour: Fri, 23-Feb-2018 10:30 CET
Couvert
Couvert
 Wind from E
Vent: E 17 km/h
Température: 3°C
Température au Vent: -1°C
Point de Rosée: -4°C
Humidité: 60%
Barometre: 1011 hPa
Nuage: Couvert
Visibilité: 10 km
2018/02/23 21:30 LFBH 232130Z AUTO 08009KT 9999 OVC036 03/M04 Q1011 NOSIG
 
LFOV - Laval,Entrammes,(53)Mayenne
Mise à jour: Fri, 23-Feb-2018 10:30 CET
Claire
Claire
 Wind from NE
Vent: NE 13 km/h
Température: -1°C
Température au Vent: -6°C
Point de Rosée: -4°C
Humidité: 80%
Barometre: 1014 hPa
Visibilité: Supérieure à  10 km
2018/02/23 21:30 LFOV 232130Z AUTO 04007KT CAVOK M01/M04 Q1014
LFRJ - Landivisiau,(29)Finistère
Mise à jour: Fri, 23-Feb-2018 10:30 CET
Claire
Claire
 Wind from E
Vent: E 11 km/h
Température: 0°C
Température au Vent: -4°C
Point de Rosée: -5°C
Humidité: 69%
Barometre: 1013 hPa
Visibilité: Supérieure à  10 km
2018/02/23 21:30 LFRJ 232130Z AUTO 10006KT CAVOK M00/M05 Q1013
LFRO - Lannion,Servel,(22)Côtes-d Armor
Mise à jour: Fri, 23-Feb-2018 10:30 CET
Partiellement nuageux
Partiellement nuageux
 Wind from ENE
Vent: ENE 9 km/h
Température: 1°C
Température au Vent: -2°C
Point de Rosée: -2°C
Humidité: 81%
Barometre: 1014 hPa
Nuage: Partiellement nuageux
Visibilité: 9 km
2018/02/23 21:30 LFRO 232130Z AUTO 07005KT 040V100 9000 NSC 01/M02 Q1014
 
LFRL - Lanveoc Poulmic,(29)Finistère
Mise à jour: Fri, 23-Feb-2018 10:30 CET
Claire
Claire
 Wind from ESE
Vent: ESE 9 km/h
Température: 0°C
Température au Vent: -3°C
Point de Rosée: -5°C
Humidité: 69%
Barometre: 1013 hPa
Visibilité: Supérieure à  10 km
2018/02/23 21:30 LFRL 232130Z AUTO 11005KT CAVOK 00/M05 Q1013 NOSIG
TFFF - Le Lamentin,(972)Martinique
Mise à jour: Fri, 23-Feb-2018 11:00 CET
Nuageux
Nuageux
 Wind from E
Vent: E 28 km/h
Température: 25°C
Point de Rosée: 20°C
Humidité: 74%
Barometre: 1015 hPa
Nuage: Nuageux
Visibilité: 10 km
2018/02/23 22:00 TFFF 232200Z AUTO 09015KT 050V110 9999 SCT027 SCT032 BKN039 25/20 Q1015 TEMPO 4000 SHRA BECMG 08015G30KT
LFMC - Le Luc,(83)Var
Mise à jour: Fri, 23-Feb-2018 10:30 CET
Claire
Claire
 Wind from W
Vent: W 9 km/h
Température: 7°C
Température au Vent: 6°C
Point de Rosée: -3°C
Humidité: 49%
Barometre: 1004 hPa
Visibilité: Supérieure à  10 km
2018/02/23 21:30 LFMC 232130Z AUTO 26005KT CAVOK 07/M03 Q1004
 
LFRM - Le Mans,(72)Sarthe
Mise à jour: Fri, 23-Feb-2018 10:30 CET
Claire
Claire
 Wind from NNE
Vent: NNE 13 km/h
Température: 0°C
Température au Vent: -4°C
Point de Rosée: -4°C
Humidité: 75%
Barometre: 1014 hPa
Visibilité: Supérieure à  10 km
2018/02/23 21:30 LFRM 232130Z AUTO 03007KT CAVOK 00/M04 Q1014 NOSIG
LFAT - Le Touquet,(62)Pas-de-Calais
Mise à jour: Fri, 23-Feb-2018 10:30 CET
Claire
Claire
 Wind from E
Vent: E 20 km/h
Température: 0°C
Température au Vent: -6°C
Point de Rosée: -6°C
Humidité: 64%
Barometre: 1018 hPa
Visibilité: Supérieure à  10 km
2018/02/23 21:30 LFAT 232130Z AUTO 08011KT CAVOK M00/M06 Q1018
LFQQ - Lille,(59)Nord
Mise à jour: Fri, 23-Feb-2018 10:30 CET
Claire
Claire
 Wind from NE
Vent: NE 15 km/h
Température: -1°C
Température au Vent: -6°C
Point de Rosée: -7°C
Humidité: 64%
Barometre: 1018 hPa
Visibilité: Supérieure à  10 km
2018/02/23 21:30 LFQQ 232130Z AUTO 04008KT CAVOK M01/M07 Q1018 NOSIG
 
LFRH - Lorient/Lann Bih,(56)Morbihan
Mise à jour: Fri, 23-Feb-2018 10:30 CET
Claire
Claire
 Wind from ENE
Vent: ENE 15 km/h
Température: 0°C
Température au Vent: -4°C
Point de Rosée: -4°C
Humidité: 75%
Barometre: 1013 hPa
Visibilité: Supérieure à  10 km
2018/02/23 21:30 LFRH 232130Z AUTO 07008KT CAVOK 00/M04 Q1013 NOSIG
LFBL - Limoges,(87)Haute-Vienne
Mise à jour: Fri, 23-Feb-2018 10:30 CET
Claire
Claire
 Wind from ENE
Vent: ENE 19 km/h
Température: -2°C
Température au Vent: -8°C
Point de Rosée: -5°C
Humidité: 80%
Barometre: 1008 hPa
Visibilité: Supérieure à  10 km
2018/02/23 21:30 LFBL 232130Z AUTO 06010KT CAVOK M02/M05 Q1008 NOSIG
LFSX - Luxeuil-les-Bains,(70)Haute-Saône
Mise à jour: Fri, 23-Feb-2018 10:30 CET
Nuageux
Nuageux
 Wind from calm
Vent: Calm
Température: -1°C
Point de Rosée: -6°C
Humidité: 69%
Barometre: 1012 hPa
Nuage: Nuageux
Visibilité: 9 km
2018/02/23 21:30 LFSX 232130Z AUTO 00000KT 9000 BKN036 M01/M06 Q1012
 
LFLY - Lyon,Bron,(69) Rhône
Mise à jour: Fri, 23-Feb-2018 10:30 CET
Couvert
Couvert
 Wind from N
Vent: N 13 km/h
Température: 1°C
Température au Vent: -3°C
Point de Rosée: -5°C
Humidité: 65%
Barometre: 1010 hPa
Nuage: Couvert
Visibilité: 10 km
2018/02/23 21:30 LFLY 232130Z AUTO 36007KT 340V080 9999 OVC038 01/M05 Q1010
LFLL - Lyon,Satolas,(69) Rhône
Mise à jour: Fri, 23-Feb-2018 10:30 CET
Couvert
Couvert
 Wind from N
Vent: N 15 km/h
Température: 1°C
Température au Vent: -3°C
Point de Rosée: -5°C
Humidité: 65%
Barometre: 1010 hPa
Nuage: Couvert
Visibilité: 10 km
2018/02/23 21:30 LFLL 232130Z AUTO 35008KT 9999 OVC036 01/M05 Q1010
LFJR - Marcé,(49) Maine-et-Loire
Mise à jour: Fri, 23-Feb-2018 10:30 CET
Couvert
Couvert
 Wind from ENE
Vent: ENE 15 km/h
Température: 3°C
Température au Vent: -1°C
Point de Rosée: -4°C
Humidité: 60%
Barometre: 1013 hPa
Nuage: Couvert
Visibilité: 10 km
2018/02/23 21:30 LFJR 232130Z AUTO 07008KT 9999 OVC039 03/M04 Q1013
 
LFML - Marseille, Marignane,(13)Bouches-du-Rhône
Mise à jour: Fri, 23-Feb-2018 10:30 CET
Partiellement nuageux
Partiellement nuageux
 Wind from NW
Vent: NW 19 km/h
Température: 5°C
Température au Vent: 1°C
Point de Rosée: -3°C
Humidité: 57%
Barometre: 1006 hPa
Nuage: Partiellement nuageux
Visibilité: 9 km
2018/02/23 21:30 LFML 232130Z AUTO 31010KT 9000 NSC 05/M03 Q1006 NOSIG
SOCA - Matury,(973)Guyane
Mise à jour: Fri, 23-Feb-2018 11:00 CET
Claire
Claire
 Wind from calm
Vent: Calm
Température: 26°C
Point de Rosée: 22°C
Humidité: 79%
Barometre: 1011 hPa
Visibilité: Supérieure à  10 km
2018/02/23 22:00 SOCA 232200Z AUTO 00000KT CAVOK 26/22 Q1011 NOSIG
LFPM - Melun,(77)Seine-et-Marne
Mise à jour: Fri, 23-Feb-2018 10:30 CET
Claire
Claire
 Wind from NE
Vent: NE 11 km/h
Température: 1°C
Température au Vent: -2°C
Point de Rosée: -6°C
Humidité: 60%
Barometre: 1014 hPa
Visibilité: Supérieure à  10 km
2018/02/23 21:30 LFPM 232130Z AUTO 05006KT 360V080 CAVOK 01/M06 Q1014
 
LFJL - Metz-Nancy-Lorraine,(57)Moselle
Mise à jour: Fri, 23-Feb-2018 10:30 CET
Claire
Claire
 Wind from ENE
Vent: ENE 19 km/h
Température: -2°C
Température au Vent: -8°C
Point de Rosée: -9°C
Humidité: 59%
Barometre: 1015 hPa
Visibilité: Supérieure à  10 km
2018/02/23 21:30 LFJL 232130Z AUTO 06010KT CAVOK M02/M09 Q1015 TEMPO 06015G25KT
LFBM - Mont-De-Marsan,(40)Landes
Mise à jour: Fri, 23-Feb-2018 10:30 CET
Couvert
Couvert
 Wind from NE
Vent: NE 7 km/h
Température: 3°C
Température au Vent: 1°C
Point de Rosée: -2°C
Humidité: 70%
Barometre: 1010 hPa
Nuage: Couvert
Visibilité: 10 km
2018/02/23 21:30 LFBM 232130Z AUTO 04004KT 9999 OVC042 03/M02 Q1010 NOSIG
LFMT - Montpellier,(34)Hérault
Mise à jour: Fri, 23-Feb-2018 10:30 CET
Partiellement nuageux
Partiellement nuageux
 Wind from NNE
Vent: NNE 13 km/h
Température: 2°C
Température au Vent: -1°C
Point de Rosée: -4°C
Humidité: 65%
Barometre: 1007 hPa
Nuage: Partiellement nuageux
Visibilité: 9 km
2018/02/23 21:30 LFMT 232130Z AUTO 02007KT 9000 NSC 02/M04 Q1007 NOSIG
 
LFRU - Morlaix Ploujean,(29)Finistère
Mise à jour: Fri, 23-Feb-2018 07:00 CET
Pas Actualisé
Claire
Claire
 Wind from E
Vent: E 13 km/h
Température: 2°C
Température au Vent: -1°C
Point de Rosée: -3°C
Humidité: 70%
Barometre: 1013 hPa
Visibilité: Supérieure à  10 km
2018/02/23 18:00 LFRU 231800Z AUTO 09007KT CAVOK 02/M03 Q1013
LFSN - Nancy,Essey,(54)Meurthe-et-Moselle
Mise à jour: Fri, 23-Feb-2018 10:30 CET
Couvert
Couvert
 Wind from NE
Vent: NE 19 km/h
Température: 0°C
Température au Vent: -5°C
Point de Rosée: -7°C
Humidité: 60%
Barometre: 1015 hPa
Nuage: Couvert
Visibilité: 10 km
2018/02/23 21:30 LFSN 232130Z AUTO 04010KT 9999 OVC039 M00/M07 Q1015
LFSO - Nancy , Ochey,(54)Meurthe-et-Moselle
Mise à jour: Fri, 23-Feb-2018 10:30 CET
Couvert
Couvert
 Wind from ENE
Vent: ENE 22 km/h
Température: 0°C
Température au Vent: -6°C
Point de Rosée: -7°C
Humidité: 60%
Barometre: 1013 hPa
Nuage: Couvert
Visibilité: 10 km
2018/02/23 21:30 LFSO 232130Z AUTO 06012KT 030V090 9999 OVC034 M00/M07 Q1013
 
LFRS - Nantes,(44)Loire-Atlantique
Mise à jour: Fri, 23-Feb-2018 10:30 CET
Couvert
Couvert
 Wind from ENE
Vent: ENE 19 km/h
Température: 3°C
Température au Vent: -2°C
Point de Rosée: -3°C
Humidité: 65%
Barometre: 1013 hPa
Nuage: Couvert
Visibilité: 10 km
2018/02/23 21:30 LFRS 232130Z AUTO 07010KT 9999 OVC033 03/M03 Q1013 NOSIG
LFQG - Nevers,Fourchamb,(58)Nièvre
Mise à jour: Fri, 23-Feb-2018 07:00 CET
Pas Actualisé
Couvert
Couvert
 Wind from NNE
Vent: NNE 7 km/h
Température: 1°C
Température au Vent: -2°C
Point de Rosée: -5°C
Humidité: 65%
Barometre: 1012 hPa
Nuage: Couvert
Visibilité: 10 km
2018/02/23 18:00 LFQG 231800Z AUTO 02004KT 9999 OVC036 01/M05 Q1012
LFMN - Nice,(06)Alpes-Maritimes
Mise à jour: Fri, 23-Feb-2018 10:30 CET
Nuageux
Nuageux
 Wind from NNW
Vent: NNW 11 km/h
Température: 8°C
Température au Vent: 6°C
Point de Rosée: 2°C
Humidité: 66%
Barometre: 1004 hPa
Nuage: Nuageux
Visibilité: 10 km
2018/02/23 21:30 LFMN 232130Z 33006KT 9999 BKN080 BKN110 08/02 Q1004 NOSIG
 
LFTW - Nimes, Garons,(30) Gard
Mise à jour: Fri, 23-Feb-2018 10:30 CET
Claire
Claire
 Wind from N
Vent: N 17 km/h
Température: 2°C
Température au Vent: -2°C
Point de Rosée: -4°C
Humidité: 65%
Barometre: 1006 hPa
Visibilité: Supérieure à  10 km
2018/02/23 21:30 LFTW 232130Z AUTO 36009KT CAVOK 02/M04 Q1006
LFMO - Orange,(84)Vaucluse
Mise à jour: Fri, 23-Feb-2018 10:30 CET
Partiellement nuageux
Partiellement nuageux
 Wind from NNW
Vent: NNW 31 km/h
Température: 3°C
Température au Vent: -3°C
Point de Rosée: -4°C
Humidité: 60%
Barometre: 1007 hPa
Nuage: Partiellement nuageux
Visibilité: 9 km
2018/02/23 21:30 LFMO 232130Z AUTO 34017KT 9000 NSC 03/M04 Q1007 BECMG 34015G25KT
LFOJ - Orleans,(45)Loiret
Mise à jour: Fri, 23-Feb-2018 10:30 CET
Nuageux
Nuageux
 Wind from NE
Vent: NE 17 km/h
Température: -1°C
Température au Vent: -6°C
Point de Rosée: -4°C
Humidité: 80%
Barometre: 1013 hPa
Nuage: Nuageux
Visibilité: 10 km
2018/02/23 21:30 LFOJ 232130Z AUTO 05009KT 9999 BKN040 M01/M04 Q1013 NOSIG
 
LFPB - Paris ,Le Bourget,(93)Seine-Saint-Denis
Mise à jour: Fri, 23-Feb-2018 10:30 CET
Claire
Claire
 Wind from NE
Vent: NE 13 km/h
Température: 0°C
Température au Vent: -4°C
Point de Rosée: -5°C
Humidité: 69%
Barometre: 1015 hPa
Visibilité: Supérieure à  10 km
2018/02/23 21:30 LFPB 232130Z AUTO 04007KT CAVOK M00/M05 Q1015 NOSIG
LFPG - Paris, Charles De Gaulle,(95)Val-d Oise
Mise à jour: Fri, 23-Feb-2018 10:30 CET
Claire
Claire
 Wind from NE
Vent: NE 15 km/h
Température: 0°C
Température au Vent: -4°C
Point de Rosée: -6°C
Humidité: 64%
Barometre: 1015 hPa
Visibilité: Supérieure à  10 km
2018/02/23 21:30 LFPG 232130Z 05008KT CAVOK M00/M06 Q1015 NOSIG
LFPO - Paris-Orly,(94)Val-de-Marne
Mise à jour: Fri, 23-Feb-2018 10:30 CET
Claire
Claire
 Wind from NE
Vent: NE 20 km/h
Température: 0°C
Température au Vent: -6°C
Point de Rosée: -6°C
Humidité: 64%
Barometre: 1015 hPa
Visibilité: Supérieure à  10 km
2018/02/23 21:30 LFPO 232130Z 05011KT CAVOK 00/M06 Q1015 NOSIG
 
LFBP - Pau,(64)Pyrénées-Atlantiques
Mise à jour: Fri, 23-Feb-2018 10:30 CET
Couvert
Couvert
 Wind from calm
Vent: Calm
Température: 3°C
Point de Rosée: -1°C
Humidité: 75%
Barometre: 1009 hPa
Nuage: Couvert
Visibilité: 10 km
2018/02/23 21:30 LFBP 232130Z AUTO 00000KT 9999 OVC039 03/M01 Q1009 NOSIG
LFMP - Perpignan,(66)Pyrénées-Orientales
Mise à jour: Fri, 23-Feb-2018 10:30 CET
Claire
Claire
 Wind from WNW
Vent: WNW 13 km/h
Température: 4°C
Température au Vent: 1°C
Point de Rosée: -3°C
Humidité: 61%
Barometre: 1008 hPa
Visibilité: Supérieure à  10 km
2018/02/23 21:30 LFMP 232130Z AUTO 30007KT 270V330 CAVOK 04/M03 Q1008 NOSIG
LFBI - Poitiers,(86)Vienne
Mise à jour: Fri, 23-Feb-2018 10:30 CET
Couvert
Couvert
 Wind from ENE
Vent: ENE 17 km/h
Température: 1°C
Température au Vent: -3°C
Point de Rosée: -5°C
Humidité: 65%
Barometre: 1012 hPa
Nuage: Couvert
Visibilité: 10 km
2018/02/23 21:30 LFBI 232130Z AUTO 06009KT 020V100 9999 OVC031 01/M05 Q1012 NOSIG
 
LFBP - Pont-Long-Uzein,(64)Pyrénées-Atlantiques
Mise à jour: Fri, 23-Feb-2018 10:30 CET
Couvert
Couvert
 Wind from calm
Vent: Calm
Température: 3°C
Point de Rosée: -1°C
Humidité: 75%
Barometre: 1009 hPa
Nuage: Couvert
Visibilité: 10 km
2018/02/23 21:30 LFBP 232130Z AUTO 00000KT 9999 OVC039 03/M01 Q1009 NOSIG
TFFR - Point à Pitre,(971)Guadeloupe
Mise à jour: Fri, 23-Feb-2018 11:00 CET
Claire
Claire
 Wind from E
Vent: E 17 km/h
Température: 24°C
Point de Rosée: 18°C
Humidité: 69%
Barometre: 1016 hPa
Visibilité: Supérieure à  10 km
2018/02/23 22:00 TFFR 232200Z AUTO 08009KT 050V120 CAVOK 24/18 Q1016 NOSIG
LFRQ - Quimper,(29)Finistère
Mise à jour: Fri, 23-Feb-2018 10:30 CET
Claire
Claire
 Wind from ENE
Vent: ENE 13 km/h
Température: -1°C
Température au Vent: -6°C
Point de Rosée: -5°C
Humidité: 75%
Barometre: 1013 hPa
Visibilité: Supérieure à  10 km
2018/02/23 21:30 LFRQ 232130Z AUTO 07007KT CAVOK M01/M05 Q1013 NOSIG
 
LFQA - Reims,Prunay,(51)Marne
Mise à jour: Fri, 23-Feb-2018 10:30 CET
Claire
Claire
 Wind from NE
Vent: NE 11 km/h
Température: -1°C
Température au Vent: -5°C
Point de Rosée: -8°C
Humidité: 59%
Barometre: 1016 hPa
Visibilité: Supérieure à  10 km
2018/02/23 21:30 LFQA 232130Z AUTO 05006KT 020V080 CAVOK M01/M08 Q1016
LFRN - Rennes,(35)Ille-et-Vilaine
Mise à jour: Fri, 23-Feb-2018 10:30 CET
Claire
Claire
 Wind from ENE
Vent: ENE 13 km/h
Température: 0°C
Température au Vent: -4°C
Point de Rosée: -4°C
Humidité: 75%
Barometre: 1014 hPa
Visibilité: Supérieure à  10 km
2018/02/23 21:30 LFRN 232130Z AUTO 06007KT CAVOK 00/M04 Q1014 NOSIG
LFCR - Rodez,(12)Aveyron
Mise à jour: Fri, 23-Feb-2018 10:30 CET
Partiellement nuageux
Partiellement nuageux
 Wind from NW
Vent: NW 4 km/h
Température: -3°C
Point de Rosée: -6°C
Humidité: 80%
Barometre: 1007 hPa
Nuage: Partiellement nuageux
Visibilité: 8 km
2018/02/23 21:30 LFCR 232130Z AUTO 31002KT 8000 NSC M03/M06 Q1007 NOSIG
 
LFYR - Romorantin,(41)Loir-et-Cher
Mise à jour: Fri, 23-Feb-2018 10:30 CET
Couvert
Couvert
 Wind from calm
Vent: Calm
Température: 1°C
Point de Rosée: -4°C
Humidité: 70%
Barometre: 1012 hPa
Nuage: Couvert
Visibilité: 10 km
2018/02/23 21:30 LFYR 232130Z AUTO 00000KT 9999 OVC041 01/M04 Q1012
LFOP - Rouen,(76)Seine-Maritime
Mise à jour: Fri, 23-Feb-2018 10:30 CET
Claire
Claire
 Wind from ENE
Vent: ENE 22 km/h
Température: -1°C
Température au Vent: -7°C
Point de Rosée: -6°C
Humidité: 69%
Barometre: 1015 hPa
Visibilité: Supérieure à  10 km
2018/02/23 21:30 LFOP 232130Z AUTO 07012KT CAVOK M01/M06 Q1015
LFRT - Saint-Brieuc,(22)Côtes-d Armor
Mise à jour: Fri, 23-Feb-2018 10:30 CET
Claire
Claire
 Wind from E
Vent: E 11 km/h
Température: 1°C
Température au Vent: -2°C
Point de Rosée: -3°C
Humidité: 75%
Barometre: 1014 hPa
Visibilité: Supérieure à  10 km
2018/02/23 21:30 LFRT 232130Z AUTO 10006KT CAVOK 01/M03 Q1014
 
FMEE - Saint-Denis,(974)Réunion
Mise à jour: Fri, 23-Feb-2018 10:30 CET
Claire
Claire
 Wind from S
Vent: S 9 km/h
Température: 24°C
Point de Rosée: 21°C
Humidité: 83%
Barometre: 1010 hPa
Visibilité: Supérieure à  10 km
2018/02/23 21:30 FMEE 232130Z AUTO 19005KT CAVOK 24/21 Q1010 BECMG FEW035 SCT040TCU
LFLN - Saint-Yan,(71)Saône-et-Loire
Mise à jour: Fri, 23-Feb-2018 10:30 CET
Couvert
Couvert
 Wind from NE
Vent: NE 9 km/h
Température: 0°C
Température au Vent: -3°C
Point de Rosée: -5°C
Humidité: 69%
Barometre: 1011 hPa
Nuage: Couvert
Visibilité: 8 km
2018/02/23 21:30 LFLN 232130Z AUTO 04005KT 8000 OVC037 M00/M05 Q1011 TEMPO 3000 BR
LFMY - Salon-de-Provence,(13)Bouches-du-Rhône
Mise à jour: Fri, 23-Feb-2018 10:30 CET
Claire
Claire
 Wind from NNW
Vent: NNW 13 km/h
Température: 3°C
Température au Vent: -1°C
Point de Rosée: -4°C
Humidité: 60%
Barometre: 1006 hPa
Visibilité: Supérieure à  10 km
2018/02/23 21:30 LFMY 232130Z AUTO 33007KT CAVOK 03/M04 Q1006
 
LFKS - Solenzara,(2A)Corse-du-Sud
Mise à jour: Fri, 23-Feb-2018 10:30 CET
Légère pluie, Orageux
Légère pluie, Orageux
 Wind from N
Vent: N 9 km/h
Température: 8°C
Température au Vent: 6°C
Point de Rosée: 8°C
Humidité: 100%
Barometre: 1001 hPa
Nuage: Orageux
Visibilité: 10 km
2018/02/23 21:30 LFKS 232130Z AUTO 35005KT 9999 -RA OVC062/// ///TCU 08/08 Q1001
LFSI - St-Dizier,(52)Haute-Marne
Mise à jour: Fri, 23-Feb-2018 10:30 CET
Couvert
Couvert
 Wind from ENE
Vent: ENE 19 km/h
Température: 1°C
Température au Vent: -4°C
Point de Rosée: -8°C
Humidité: 51%
Barometre: 1014 hPa
Nuage: Couvert
Visibilité: 10 km
2018/02/23 21:30 LFSI 232130Z AUTO 07010KT 9999 OVC039 01/M08 Q1014
LFMH - St-Etienne Boutheon,(42) Loire
Mise à jour: Fri, 23-Feb-2018 10:30 CET
Couvert
Couvert
 Wind from varies
Vent: varies 6 km/h
Température: -1°C
Point de Rosée: -4°C
Humidité: 80%
Barometre: 1010 hPa
Nuage: Couvert
Visibilité: 9 km
2018/02/23 21:30 LFMH 232130Z AUTO VRB03KT 9000 OVC027 M01/M04 Q1010 TEMPO 3000 BR OVC010
 
LFVP - St-Pierre et Miquelon,(975)Outre-mer
Mise à jour: Fri, 23-Feb-2018 11:00 CET
Partiellement nuageux
Partiellement nuageux
 Wind from NW
Vent: NW 39 km/h, Gust: 63 km/h
Température: -6°C
Température au Vent: -16°C
Point de Rosée: -12°C
Humidité: 63%
Barometre: 1028 hPa
Nuage: Partiellement nuageux
Visibilité: 10 km
2018/02/23 22:00 LFVP 232200Z 31021G34KT 9999 SCT028 M06/M12 Q1028 NOSIG
LFRZ - St-Nazaire,(44)Loire-Atlantique
Mise à jour: Fri, 23-Feb-2018 10:30 CET
Claire
Claire
 Wind from NE
Vent: NE 13 km/h
Température: 1°C
Température au Vent: -3°C
Point de Rosée: -3°C
Humidité: 75%
Barometre: 1013 hPa
Visibilité: Supérieure à  10 km
2018/02/23 21:30 LFRZ 232130Z AUTO 05007KT CAVOK 01/M03 Q1013 NOSIG
LFST - Strasbourg,(67)Bas-Rhin
Mise à jour: Fri, 23-Feb-2018 10:30 CET
Couvert
Couvert
 Wind from NNE
Vent: NNE 24 km/h
Température: 1°C
Température au Vent: -4°C
Point de Rosée: -7°C
Humidité: 56%
Barometre: 1015 hPa
Nuage: Couvert
Visibilité: 10 km
2018/02/23 21:30 LFST 232130Z AUTO 03013KT 9999 OVC042 01/M07 Q1015 NOSIG
 
LFBT - Tarbes, Ossun,(65)Hautes-Pyrénées
Mise à jour: Fri, 23-Feb-2018 10:30 CET
Couvert
Couvert
 Wind from N
Vent: N 2 km/h
Température: 1°C
Point de Rosée: -1°C
Humidité: 87%
Barometre: 1008 hPa
Nuage: Couvert
Visibilité: 10 km
2018/02/23 21:30 LFBT 232130Z AUTO 01001KT 9999 OVC033 01/M01 Q1008 NOSIG
LFBO - Toulouse,Blagnac,(31)Haute-Garonne
Mise à jour: Fri, 23-Feb-2018 10:30 CET
Partiellement nuageux
Partiellement nuageux
 Wind from WNW
Vent: WNW 6 km/h
Température: 2°C
Point de Rosée: -4°C
Humidité: 65%
Barometre: 1009 hPa
Nuage: Partiellement nuageux
Visibilité: 7 km
2018/02/23 21:30 LFBO 232130Z AUTO 30003KT 7000 NSC 02/M04 Q1009 NOSIG
LFOT - Tours,(37)Indre-et-Loire
Mise à jour: Fri, 23-Feb-2018 10:30 CET
Couvert
Couvert
 Wind from NE
Vent: NE 13 km/h
Température: 2°C
Température au Vent: -1°C
Point de Rosée: -4°C
Humidité: 65%
Barometre: 1013 hPa
Nuage: Couvert
Visibilité: 10 km
2018/02/23 21:30 LFOT 232130Z AUTO 05007KT 020V080 9999 OVC039 02/M04 Q1013 NOSIG
 
LFPN - Toussus Le Noble,(78,Yvelines
Mise à jour: Fri, 23-Feb-2018 10:30 CET
Claire
Claire
 Wind from ENE
Vent: ENE 13 km/h
Température: 1°C
Température au Vent: -3°C
Point de Rosée: -7°C
Humidité: 56%
Barometre: 1014 hPa
Visibilité: Supérieure à  10 km
2018/02/23 21:30 LFPN 232130Z AUTO 06007KT 030V090 CAVOK 01/M07 Q1014
LFQB - Troyes,Barberey,(10)Aube
Mise à jour: Fri, 23-Feb-2018 10:30 CET
Nuageux
Nuageux
 Wind from NE
Vent: NE 17 km/h
Température: 1°C
Température au Vent: -3°C
Point de Rosée: -5°C
Humidité: 65%
Barometre: 1014 hPa
Nuage: Nuageux
Visibilité: 10 km
2018/02/23 21:30 LFQB 232130Z AUTO 05009KT 9999 BKN040 01/M05 Q1014
LFLU - VALENCE Chabeuil,(26)Drôme
Mise à jour: Fri, 23-Feb-2018 07:00 CET
Pas Actualisé
Couvert
Couvert
 Wind from N
Vent: N 26 km/h
Température: 3°C
Température au Vent: -2°C
Point de Rosée: -3°C
Humidité: 65%
Barometre: 1008 hPa
Nuage: Couvert
Visibilité: 10 km
2018/02/23 18:00 LFLU 231800Z AUTO 35014KT 9999 OVC037 03/M03 Q1008
 
LFRV - Vannes,Meucon,(56)Morbihan
Mise à jour: Fri, 23-Feb-2018 10:30 CET
Claire
Claire
 Wind from ENE
Vent: ENE 13 km/h
Température: -1°C
Température au Vent: -6°C
Point de Rosée: -5°C
Humidité: 75%
Barometre: 1012 hPa
Visibilité: Supérieure à  10 km
2018/02/23 21:30 LFRV 232130Z AUTO 06007KT CAVOK M01/M05 Q1012
LFPV - Villacoublay,(78)Yvelines
Mise à jour: Fri, 23-Feb-2018 10:30 CET
Claire
Claire
 Wind from ENE
Vent: ENE 20 km/h
Température: 1°C
Température au Vent: -4°C
Point de Rosée: -8°C
Humidité: 51%
Barometre: 1014 hPa
Visibilité: Supérieure à  10 km
2018/02/23 21:30 LFPV 232130Z AUTO 06011KT CAVOK 01/M08 Q1014 NOSIG

Metar display script from Saratoga-Weather.org